SARI METAR and TAF weather

Enter ICAO airport designator
Station Type Date Time Source
SARI METAR 2020/03/29 11:00 UTC NOAA

SARI 291100Z 05003KT CAVOK 22/19 Q1016


Station Type Date Time Source
SARI Decoded METAR 2020/03/29 11:00 UTC NOAA

Iguazu Aerodrome, Argentina (SARI) 25-44S 054-28W 270M
Mar 29, 2020 - 07:00 AM EDT / 2020.03.29 1100 UTC
Wind: from the NE (050 degrees) at 3 MPH (3 KT):0
Visibility: greater than 7 mile(s):0
Temperature: 71 F (22 C)
Dew Point: 66 F (19 C)
Relative Humidity: 83%
Pressure (altimeter): 30.00 in. Hg (1016 hPa)
ob: SARI 291100Z 05003KT CAVOK 22/19 Q1016
cycle: 11

Station Type Date Time Source
SARI TAF 2020/03/29 12:15 UTC NOAA

TAF SARI 291100Z 2912/3012 05005KT CAVOK TX30/2918Z TN21/3009Z

Example: see airport list